8A1 weather

Guntersville Municipal Joe Starnes Field
Guntersville, Alabama, United States

Public forecast

Using degrees Fahrenheit for public forecast. Weather courtesy of forecast.io.

METAR (pilot weather report)

Closest report is Albertville Regional Airport/Thomas J Brumlik Field, 10.2 nm (19.0 km) S. Retrieved UTC (0 seconds ago):

TAF (pilot weather forecast)

Closest forecast is Huntsville International Carl T Jones Field, 28.8 nm (53.3 km) WNW. Retrieved 2019/08/20 12:33 UTC (3 hours ago):

TAF KHSV 201131Z 2012/2112 00000KT P6SM SKC FM201500 19003KT P6SM SCT050 FM202100 20004KT P6SM VCTS BKN040CB FM210000 VRB02KT P6SM SCT250